sensor_id;sensor_type;location;lat;lon;timestamp;P1;durP1;ratioP1;P2;durP2;ratioP2
67798;SDS011;54596;43.216;27.904;2023-12-28T00:01:24;17.55;;;8.73;;
67798;SDS011;54596;43.216;27.904;2023-12-28T00:03:50;13.88;;;7.35;;
67798;SDS011;54596;43.216;27.904;2023-12-28T00:06:17;15.60;;;6.60;;
67798;SDS011;54596;43.216;27.904;2023-12-28T00:08:45;15.45;;;6.82;;
67798;SDS011;54596;43.216;27.904;2023-12-28T00:11:11;14.68;;;7.80;;
67798;SDS011;54596;43.216;27.904;2023-12-28T00:13:38;15.23;;;7.88;;
67798;SDS011;54596;43.216;27.904;2023-12-28T00:16:03;12.48;;;6.93;;
67798;SDS011;54596;43.216;27.904;2023-12-28T00:18:29;15.40;;;7.72;;
67798;SDS011;54596;43.216;27.904;2023-12-28T00:20:55;15.93;;;7.90;;
67798;SDS011;54596;43.216;27.904;2023-12-28T00:23:20;17.45;;;8.30;;
67798;SDS011;54596;43.216;27.904;2023-12-28T00:25:46;12.23;;;6.93;;
67798;SDS011;54596;43.216;27.904;2023-12-28T00:28:15;16.40;;;6.57;;
67798;SDS011;54596;43.216;27.904;2023-12-28T00:30:41;15.43;;;7.28;;
67798;SDS011;54596;43.216;27.904;2023-12-28T00:33:09;12.40;;;6.45;;
67798;SDS011;54596;43.216;27.904;2023-12-28T00:35:36;13.38;;;6.60;;
67798;SDS011;54596;43.216;27.904;2023-12-28T00:38:01;12.32;;;6.38;;
67798;SDS011;54596;43.216;27.904;2023-12-28T00:40:27;13.82;;;6.35;;
67798;SDS011;54596;43.216;27.904;2023-12-28T00:42:54;14.32;;;6.30;;
67798;SDS011;54596;43.216;27.904;2023-12-28T00:45:20;14.98;;;6.20;;
67798;SDS011;54596;43.216;27.904;2023-12-28T00:47:46;14.07;;;6.20;;
67798;SDS011;54596;43.216;27.904;2023-12-28T00:50:11;13.52;;;7.18;;
67798;SDS011;54596;43.216;27.904;2023-12-28T00:52:37;15.85;;;7.50;;
67798;SDS011;54596;43.216;27.904;2023-12-28T00:55:03;29.08;;;17.45;;
67798;SDS011;54596;43.216;27.904;2023-12-28T00:57:29;21.30;;;11.52;;
67798;SDS011;54596;43.216;27.904;2023-12-28T00:59:55;12.82;;;6.97;;
67798;SDS011;54596;43.216;27.904;2023-12-28T01:02:22;14.38;;;6.97;;
67798;SDS011;54596;43.216;27.904;2023-12-28T01:04:49;13.75;;;6.90;;
67798;SDS011;54596;43.216;27.904;2023-12-28T01:07:15;11.75;;;6.72;;
67798;SDS011;54596;43.216;27.904;2023-12-28T01:09:42;14.45;;;6.72;;
67798;SDS011;54596;43.216;27.904;2023-12-28T01:12:08;17.42;;;7.28;;
67798;SDS011;54596;43.216;27.904;2023-12-28T01:14:34;13.55;;;6.80;;
67798;SDS011;54596;43.216;27.904;2023-12-28T01:17:01;12.27;;;6.72;;
67798;SDS011;54596;43.216;27.904;2023-12-28T01:19:27;14.90;;;7.30;;
67798;SDS011;54596;43.216;27.904;2023-12-28T01:21:53;14.32;;;7.38;;
67798;SDS011;54596;43.216;27.904;2023-12-28T01:24:18;14.00;;;7.00;;
67798;SDS011;54596;43.216;27.904;2023-12-28T01:26:44;14.82;;;6.88;;
67798;SDS011;54596;43.216;27.904;2023-12-28T01:29:09;16.48;;;7.28;;
67798;SDS011;54596;43.216;27.904;2023-12-28T01:31:35;13.98;;;7.03;;
67798;SDS011;54596;43.216;27.904;2023-12-28T01:34:01;14.38;;;6.45;;
67798;SDS011;54596;43.216;27.904;2023-12-28T01:36:29;12.20;;;6.72;;
67798;SDS011;54596;43.216;27.904;2023-12-28T01:38:56;14.55;;;6.70;;
67798;SDS011;54596;43.216;27.904;2023-12-28T01:41:21;12.85;;;6.72;;
67798;SDS011;54596;43.216;27.904;2023-12-28T01:43:47;14.05;;;7.25;;
67798;SDS011;54596;43.216;27.904;2023-12-28T01:46:19;16.42;;;7.03;;
67798;SDS011;54596;43.216;27.904;2023-12-28T01:48:47;18.30;;;7.35;;
67798;SDS011;54596;43.216;27.904;2023-12-28T01:51:16;14.30;;;7.15;;
67798;SDS011;54596;43.216;27.904;2023-12-28T01:53:45;15.18;;;7.03;;
67798;SDS011;54596;43.216;27.904;2023-12-28T01:56:12;13.82;;;6.85;;
67798;SDS011;54596;43.216;27.904;2023-12-28T01:58:38;14.25;;;7.22;;
67798;SDS011;54596;43.216;27.904;2023-12-28T02:01:05;13.70;;;6.93;;
67798;SDS011;54596;43.216;27.904;2023-12-28T02:03:32;14.80;;;7.00;;
67798;SDS011;54596;43.216;27.904;2023-12-28T02:05:58;14.50;;;7.45;;
67798;SDS011;54596;43.216;27.904;2023-12-28T02:08:25;14.05;;;6.93;;
67798;SDS011;54596;43.216;27.904;2023-12-28T02:10:51;13.52;;;7.35;;
67798;SDS011;54596;43.216;27.904;2023-12-28T02:13:16;16.70;;;7.57;;
67798;SDS011;54596;43.216;27.904;2023-12-28T02:15:43;15.93;;;8.07;;
67798;SDS011;54596;43.216;27.904;2023-12-28T02:18:12;17.52;;;8.70;;
67798;SDS011;54596;43.216;27.904;2023-12-28T02:23:09;20.92;;;13.02;;
67798;SDS011;54596;43.216;27.904;2023-12-28T02:25:35;22.80;;;13.80;;
67798;SDS011;54596;43.216;27.904;2023-12-28T02:28:01;25.73;;;15.50;;
67798;SDS011;54596;43.216;27.904;2023-12-28T02:30:27;28.08;;;20.25;;
67798;SDS011;54596;43.216;27.904;2023-12-28T02:33:02;32.40;;;21.55;;
67798;SDS011;54596;43.216;27.904;2023-12-28T02:35:56;30.08;;;18.95;;
67798;SDS011;54596;43.216;27.904;2023-12-28T02:38:24;27.58;;;17.73;;
67798;SDS011;54596;43.216;27.904;2023-12-28T02:40:51;26.63;;;17.10;;
67798;SDS011;54596;43.216;27.904;2023-12-28T02:43:18;23.67;;;14.20;;
67798;SDS011;54596;43.216;27.904;2023-12-28T02:45:44;19.80;;;14.45;;
67798;SDS011;54596;43.216;27.904;2023-12-28T02:48:09;18.38;;;12.50;;
67798;SDS011;54596;43.216;27.904;2023-12-28T02:50:35;22.67;;;14.68;;
67798;SDS011;54596;43.216;27.904;2023-12-28T02:53:01;23.13;;;13.95;;
67798;SDS011;54596;43.216;27.904;2023-12-28T02:55:27;22.00;;;12.85;;
67798;SDS011;54596;43.216;27.904;2023-12-28T02:57:53;22.88;;;12.25;;
67798;SDS011;54596;43.216;27.904;2023-12-28T03:00:21;24.13;;;13.63;;
67798;SDS011;54596;43.216;27.904;2023-12-28T03:02:47;21.15;;;12.73;;
67798;SDS011;54596;43.216;27.904;2023-12-28T03:05:12;19.98;;;12.80;;
67798;SDS011;54596;43.216;27.904;2023-12-28T03:07:38;23.85;;;13.02;;
67798;SDS011;54596;43.216;27.904;2023-12-28T03:10:05;23.60;;;13.65;;
67798;SDS011;54596;43.216;27.904;2023-12-28T03:12:32;24.05;;;12.93;;
67798;SDS011;54596;43.216;27.904;2023-12-28T03:14:58;25.55;;;12.80;;
67798;SDS011;54596;43.216;27.904;2023-12-28T03:17:23;21.23;;;12.48;;
67798;SDS011;54596;43.216;27.904;2023-12-28T03:19:49;20.70;;;13.00;;
67798;SDS011;54596;43.216;27.904;2023-12-28T03:22:15;23.85;;;15.63;;
67798;SDS011;54596;43.216;27.904;2023-12-28T03:24:42;23.40;;;14.10;;
67798;SDS011;54596;43.216;27.904;2023-12-28T03:27:07;24.40;;;13.48;;
67798;SDS011;54596;43.216;27.904;2023-12-28T03:29:33;23.10;;;12.70;;
67798;SDS011;54596;43.216;27.904;2023-12-28T03:31:59;21.23;;;13.10;;
67798;SDS011;54596;43.216;27.904;2023-12-28T03:34:25;28.70;;;12.93;;
67798;SDS011;54596;43.216;27.904;2023-12-28T03:36:55;27.08;;;13.40;;
67798;SDS011;54596;43.216;27.904;2023-12-28T03:39:22;28.10;;;14.50;;
67798;SDS011;54596;43.216;27.904;2023-12-28T03:41:48;26.63;;;15.25;;
67798;SDS011;54596;43.216;27.904;2023-12-28T03:44:14;23.35;;;14.82;;
67798;SDS011;54596;43.216;27.904;2023-12-28T03:46:39;27.33;;;15.00;;
67798;SDS011;54596;43.216;27.904;2023-12-28T03:49:05;27.95;;;17.33;;
67798;SDS011;54596;43.216;27.904;2023-12-28T03:51:31;31.75;;;22.00;;
67798;SDS011;54596;43.216;27.904;2023-12-28T03:53:56;34.55;;;22.45;;
67798;SDS011;54596;43.216;27.904;2023-12-28T03:56:24;33.75;;;22.52;;
67798;SDS011;54596;43.216;27.904;2023-12-28T03:58:53;33.13;;;22.88;;
67798;SDS011;54596;43.216;27.904;2023-12-28T04:01:19;33.20;;;22.45;;
67798;SDS011;54596;43.216;27.904;2023-12-28T04:03:46;29.25;;;20.95;;
67798;SDS011;54596;43.216;27.904;2023-12-28T04:06:12;30.27;;;19.58;;
67798;SDS011;54596;43.216;27.904;2023-12-28T04:08:39;26.60;;;18.13;;
67798;SDS011;54596;43.216;27.904;2023-12-28T04:11:05;28.92;;;18.38;;
67798;SDS011;54596;43.216;27.904;2023-12-28T04:13:31;29.85;;;18.88;;
67798;SDS011;54596;43.216;27.904;2023-12-28T04:15:57;30.45;;;19.40;;
67798;SDS011;54596;43.216;27.904;2023-12-28T04:18:22;30.08;;;18.88;;
67798;SDS011;54596;43.216;27.904;2023-12-28T04:20:48;25.67;;;16.05;;
67798;SDS011;54596;43.216;27.904;2023-12-28T04:23:14;28.58;;;17.33;;
67798;SDS011;54596;43.216;27.904;2023-12-28T04:25:40;34.47;;;22.42;;
67798;SDS011;54596;43.216;27.904;2023-12-28T04:28:06;38.05;;;23.25;;
67798;SDS011;54596;43.216;27.904;2023-12-28T04:30:32;28.00;;;18.35;;
67798;SDS011;54596;43.216;27.904;2023-12-28T04:32:58;26.25;;;16.98;;
67798;SDS011;54596;43.216;27.904;2023-12-28T04:35:23;29.30;;;16.35;;
67798;SDS011;54596;43.216;27.904;2023-12-28T04:37:49;24.15;;;14.48;;
67798;SDS011;54596;43.216;27.904;2023-12-28T04:40:14;23.70;;;14.38;;
67798;SDS011;54596;43.216;27.904;2023-12-28T04:42:40;22.83;;;14.75;;
67798;SDS011;54596;43.216;27.904;2023-12-28T04:45:06;22.85;;;14.02;;
67798;SDS011;54596;43.216;27.904;2023-12-28T04:47:32;24.60;;;13.82;;
67798;SDS011;54596;43.216;27.904;2023-12-28T04:49:58;22.98;;;14.65;;
67798;SDS011;54596;43.216;27.904;2023-12-28T04:52:23;25.30;;;14.80;;
67798;SDS011;54596;43.216;27.904;2023-12-28T04:54:49;22.98;;;14.80;;
67798;SDS011;54596;43.216;27.904;2023-12-28T04:57:14;30.35;;;15.10;;
67798;SDS011;54596;43.216;27.904;2023-12-28T04:59:40;24.17;;;14.57;;
67798;SDS011;54596;43.216;27.904;2023-12-28T05:02:06;24.33;;;14.60;;
67798;SDS011;54596;43.216;27.904;2023-12-28T05:04:32;23.83;;;15.10;;
67798;SDS011;54596;43.216;27.904;2023-12-28T05:06:58;25.08;;;15.30;;
67798;SDS011;54596;43.216;27.904;2023-12-28T05:09:24;24.77;;;15.43;;
67798;SDS011;54596;43.216;27.904;2023-12-28T05:11:49;31.95;;;16.95;;
67798;SDS011;54596;43.216;27.904;2023-12-28T05:14:16;37.15;;;25.13;;
67798;SDS011;54596;43.216;27.904;2023-12-28T05:16:42;47.53;;;34.17;;
67798;SDS011;54596;43.216;27.904;2023-12-28T05:19:07;59.30;;;42.30;;
67798;SDS011;54596;43.216;27.904;2023-12-28T05:21:34;54.58;;;44.00;;
67798;SDS011;54596;43.216;27.904;2023-12-28T05:23:59;64.75;;;44.60;;
67798;SDS011;54596;43.216;27.904;2023-12-28T05:26:25;52.25;;;39.17;;
67798;SDS011;54596;43.216;27.904;2023-12-28T05:28:51;42.35;;;32.05;;
67798;SDS011;54596;43.216;27.904;2023-12-28T05:31:17;45.63;;;33.13;;
67798;SDS011;54596;43.216;27.904;2023-12-28T05:33:42;31.67;;;23.60;;
67798;SDS011;54596;43.216;27.904;2023-12-28T05:36:08;26.50;;;18.73;;
67798;SDS011;54596;43.216;27.904;2023-12-28T05:38:33;24.23;;;17.48;;
67798;SDS011;54596;43.216;27.904;2023-12-28T05:40:59;29.35;;;16.65;;
67798;SDS011;54596;43.216;27.904;2023-12-28T05:43:25;24.17;;;16.33;;
67798;SDS011;54596;43.216;27.904;2023-12-28T05:45:50;25.58;;;15.18;;
67798;SDS011;54596;43.216;27.904;2023-12-28T05:48:16;24.58;;;15.45;;
67798;SDS011;54596;43.216;27.904;2023-12-28T05:50:41;25.45;;;14.50;;
67798;SDS011;54596;43.216;27.904;2023-12-28T05:53:07;43.03;;;16.13;;
67798;SDS011;54596;43.216;27.904;2023-12-28T05:55:39;26.50;;;16.17;;
67798;SDS011;54596;43.216;27.904;2023-12-28T05:58:07;36.30;;;20.58;;
67798;SDS011;54596;43.216;27.904;2023-12-28T06:00:32;27.75;;;16.27;;
67798;SDS011;54596;43.216;27.904;2023-12-28T06:03:01;25.60;;;15.38;;
67798;SDS011;54596;43.216;27.904;2023-12-28T06:05:27;25.38;;;14.27;;
67798;SDS011;54596;43.216;27.904;2023-12-28T06:07:54;27.70;;;15.98;;
67798;SDS011;54596;43.216;27.904;2023-12-28T06:10:19;32.28;;;15.85;;
67798;SDS011;54596;43.216;27.904;2023-12-28T06:12:45;27.77;;;15.20;;
67798;SDS011;54596;43.216;27.904;2023-12-28T06:15:11;25.23;;;15.88;;
67798;SDS011;54596;43.216;27.904;2023-12-28T06:17:36;29.65;;;17.20;;
67798;SDS011;54596;43.216;27.904;2023-12-28T06:20:02;29.30;;;17.85;;
67798;SDS011;54596;43.216;27.904;2023-12-28T06:22:29;32.28;;;16.90;;
67798;SDS011;54596;43.216;27.904;2023-12-28T06:24:55;25.27;;;16.55;;
67798;SDS011;54596;43.216;27.904;2023-12-28T06:27:20;28.50;;;16.70;;
67798;SDS011;54596;43.216;27.904;2023-12-28T06:29:46;33.67;;;17.75;;
67798;SDS011;54596;43.216;27.904;2023-12-28T06:32:12;36.88;;;19.05;;
67798;SDS011;54596;43.216;27.904;2023-12-28T06:34:39;30.17;;;18.15;;
67798;SDS011;54596;43.216;27.904;2023-12-28T06:37:04;37.70;;;23.98;;
67798;SDS011;54596;43.216;27.904;2023-12-28T06:39:30;42.28;;;22.80;;
67798;SDS011;54596;43.216;27.904;2023-12-28T06:41:55;42.80;;;22.63;;
67798;SDS011;54596;43.216;27.904;2023-12-28T06:44:21;35.92;;;19.40;;
67798;SDS011;54596;43.216;27.904;2023-12-28T06:46:46;41.58;;;24.17;;
67798;SDS011;54596;43.216;27.904;2023-12-28T06:49:12;40.97;;;20.95;;
67798;SDS011;54596;43.216;27.904;2023-12-28T06:51:38;38.58;;;19.33;;
67798;SDS011;54596;43.216;27.904;2023-12-28T06:54:04;37.28;;;17.23;;
67798;SDS011;54596;43.216;27.904;2023-12-28T06:56:29;40.08;;;16.95;;
67798;SDS011;54596;43.216;27.904;2023-12-28T06:58:55;41.72;;;17.85;;
67798;SDS011;54596;43.216;27.904;2023-12-28T07:01:20;37.25;;;16.80;;
67798;SDS011;54596;43.216;27.904;2023-12-28T07:03:46;38.05;;;18.83;;
67798;SDS011;54596;43.216;27.904;2023-12-28T07:06:13;44.55;;;19.85;;
67798;SDS011;54596;43.216;27.904;2023-12-28T07:08:38;40.10;;;19.25;;
67798;SDS011;54596;43.216;27.904;2023-12-28T07:11:04;39.80;;;20.92;;
67798;SDS011;54596;43.216;27.904;2023-12-28T07:13:30;42.03;;;20.75;;
67798;SDS011;54596;43.216;27.904;2023-12-28T07:15:55;34.28;;;19.38;;
67798;SDS011;54596;43.216;27.904;2023-12-28T07:18:21;42.97;;;25.83;;
67798;SDS011;54596;43.216;27.904;2023-12-28T07:20:46;47.05;;;29.30;;
67798;SDS011;54596;43.216;27.904;2023-12-28T07:23:14;39.63;;;25.95;;
67798;SDS011;54596;43.216;27.904;2023-12-28T07:25:40;52.65;;;32.20;;
67798;SDS011;54596;43.216;27.904;2023-12-28T07:28:05;57.40;;;38.42;;
67798;SDS011;54596;43.216;27.904;2023-12-28T07:30:32;56.40;;;41.25;;
67798;SDS011;54596;43.216;27.904;2023-12-28T07:32:58;53.25;;;37.25;;
67798;SDS011;54596;43.216;27.904;2023-12-28T07:35:24;57.22;;;35.75;;
67798;SDS011;54596;43.216;27.904;2023-12-28T07:37:49;47.88;;;30.83;;
67798;SDS011;54596;43.216;27.904;2023-12-28T07:40:15;49.15;;;30.08;;
67798;SDS011;54596;43.216;27.904;2023-12-28T07:42:40;44.75;;;25.50;;
67798;SDS011;54596;43.216;27.904;2023-12-28T07:45:06;45.63;;;27.77;;
67798;SDS011;54596;43.216;27.904;2023-12-28T07:47:32;43.55;;;23.65;;
67798;SDS011;54596;43.216;27.904;2023-12-28T07:49:58;46.78;;;24.38;;
67798;SDS011;54596;43.216;27.904;2023-12-28T07:52:24;46.92;;;26.63;;
67798;SDS011;54596;43.216;27.904;2023-12-28T07:54:50;45.00;;;24.80;;
67798;SDS011;54596;43.216;27.904;2023-12-28T07:57:15;42.03;;;22.88;;
67798;SDS011;54596;43.216;27.904;2023-12-28T07:59:41;47.20;;;22.65;;
67798;SDS011;54596;43.216;27.904;2023-12-28T08:02:07;37.40;;;22.13;;
67798;SDS011;54596;43.216;27.904;2023-12-28T08:04:33;36.90;;;22.38;;
67798;SDS011;54596;43.216;27.904;2023-12-28T08:06:59;46.45;;;28.98;;
67798;SDS011;54596;43.216;27.904;2023-12-28T08:09:24;38.35;;;22.95;;
67798;SDS011;54596;43.216;27.904;2023-12-28T08:11:51;47.00;;;24.73;;
67798;SDS011;54596;43.216;27.904;2023-12-28T08:14:16;41.60;;;22.33;;
67798;SDS011;54596;43.216;27.904;2023-12-28T08:16:42;40.60;;;25.17;;
67798;SDS011;54596;43.216;27.904;2023-12-28T08:19:07;48.63;;;26.17;;
67798;SDS011;54596;43.216;27.904;2023-12-28T08:21:34;40.70;;;23.40;;
67798;SDS011;54596;43.216;27.904;2023-12-28T08:24:00;47.33;;;24.67;;
67798;SDS011;54596;43.216;27.904;2023-12-28T08:26:25;43.97;;;24.23;;
67798;SDS011;54596;43.216;27.904;2023-12-28T08:28:51;44.30;;;26.73;;
67798;SDS011;54596;43.216;27.904;2023-12-28T08:31:17;41.78;;;24.10;;
67798;SDS011;54596;43.216;27.904;2023-12-28T08:33:43;43.25;;;25.15;;
67798;SDS011;54596;43.216;27.904;2023-12-28T08:36:09;38.33;;;21.92;;
67798;SDS011;54596;43.216;27.904;2023-12-28T08:38:36;37.58;;;21.85;;
67798;SDS011;54596;43.216;27.904;2023-12-28T08:41:02;34.13;;;18.85;;
67798;SDS011;54596;43.216;27.904;2023-12-28T08:43:28;28.38;;;17.10;;
67798;SDS011;54596;43.216;27.904;2023-12-28T08:45:56;22.67;;;12.10;;
67798;SDS011;54596;43.216;27.904;2023-12-28T08:48:22;24.80;;;14.05;;
67798;SDS011;54596;43.216;27.904;2023-12-28T08:50:48;18.30;;;10.30;;
67798;SDS011;54596;43.216;27.904;2023-12-28T08:53:14;19.42;;;10.80;;
67798;SDS011;54596;43.216;27.904;2023-12-28T08:55:39;23.08;;;11.05;;
67798;SDS011;54596;43.216;27.904;2023-12-28T08:58:05;15.85;;;8.75;;
67798;SDS011;54596;43.216;27.904;2023-12-28T09:00:30;14.18;;;8.07;;
67798;SDS011;54596;43.216;27.904;2023-12-28T09:02:56;15.60;;;8.52;;
67798;SDS011;54596;43.216;27.904;2023-12-28T09:05:21;17.48;;;8.18;;
67798;SDS011;54596;43.216;27.904;2023-12-28T09:07:47;13.75;;;7.45;;
67798;SDS011;54596;43.216;27.904;2023-12-28T09:10:12;14.30;;;8.02;;
67798;SDS011;54596;43.216;27.904;2023-12-28T09:12:39;16.38;;;7.97;;
67798;SDS011;54596;43.216;27.904;2023-12-28T09:15:06;16.50;;;7.90;;
67798;SDS011;54596;43.216;27.904;2023-12-28T09:17:32;13.52;;;7.80;;
67798;SDS011;54596;43.216;27.904;2023-12-28T09:19:58;14.43;;;7.53;;
67798;SDS011;54596;43.216;27.904;2023-12-28T09:22:24;12.95;;;7.90;;
67798;SDS011;54596;43.216;27.904;2023-12-28T09:24:49;15.38;;;7.70;;
67798;SDS011;54596;43.216;27.904;2023-12-28T09:27:16;14.77;;;8.38;;
67798;SDS011;54596;43.216;27.904;2023-12-28T09:29:41;13.60;;;8.18;;
67798;SDS011;54596;43.216;27.904;2023-12-28T09:32:07;17.85;;;8.25;;
67798;SDS011;54596;43.216;27.904;2023-12-28T09:34:32;17.20;;;7.65;;
67798;SDS011;54596;43.216;27.904;2023-12-28T09:36:58;17.65;;;9.68;;
67798;SDS011;54596;43.216;27.904;2023-12-28T09:39:24;15.45;;;8.18;;
67798;SDS011;54596;43.216;27.904;2023-12-28T09:41:54;17.08;;;8.98;;
67798;SDS011;54596;43.216;27.904;2023-12-28T09:44:24;15.73;;;8.00;;
67798;SDS011;54596;43.216;27.904;2023-12-28T09:46:50;15.25;;;8.20;;
67798;SDS011;54596;43.216;27.904;2023-12-28T09:49:19;15.85;;;8.68;;
67798;SDS011;54596;43.216;27.904;2023-12-28T09:51:46;14.95;;;8.57;;
67798;SDS011;54596;43.216;27.904;2023-12-28T09:54:12;13.50;;;8.23;;
67798;SDS011;54596;43.216;27.904;2023-12-28T09:56:42;14.63;;;8.18;;
67798;SDS011;54596;43.216;27.904;2023-12-28T09:59:08;15.00;;;8.27;;
67798;SDS011;54596;43.216;27.904;2023-12-28T10:01:35;14.93;;;7.63;;
67798;SDS011;54596;43.216;27.904;2023-12-28T10:04:01;16.65;;;8.13;;
67798;SDS011;54596;43.216;27.904;2023-12-28T10:06:28;18.02;;;8.75;;
67798;SDS011;54596;43.216;27.904;2023-12-28T10:08:54;13.00;;;7.78;;
67798;SDS011;54596;43.216;27.904;2023-12-28T10:11:21;15.00;;;8.18;;
67798;SDS011;54596;43.216;27.904;2023-12-28T10:13:48;14.90;;;8.13;;
67798;SDS011;54596;43.216;27.904;2023-12-28T10:16:15;15.02;;;8.48;;
67798;SDS011;54596;43.216;27.904;2023-12-28T10:18:41;19.42;;;8.85;;
67798;SDS011;54596;43.216;27.904;2023-12-28T10:21:07;29.90;;;19.10;;
67798;SDS011;54596;43.216;27.904;2023-12-28T10:23:33;17.40;;;9.15;;
67798;SDS011;54596;43.216;27.904;2023-12-28T10:25:59;15.88;;;9.07;;
67798;SDS011;54596;43.216;27.904;2023-12-28T10:28:25;18.15;;;8.73;;
67798;SDS011;54596;43.216;27.904;2023-12-28T10:30:56;16.38;;;8.73;;
67798;SDS011;54596;43.216;27.904;2023-12-28T10:33:22;14.73;;;8.15;;
67798;SDS011;54596;43.216;27.904;2023-12-28T10:35:49;16.17;;;8.73;;
67798;SDS011;54596;43.216;27.904;2023-12-28T10:38:16;17.27;;;8.98;;
67798;SDS011;54596;43.216;27.904;2023-12-28T10:40:45;14.32;;;8.18;;
67798;SDS011;54596;43.216;27.904;2023-12-28T10:43:14;14.65;;;7.55;;
67798;SDS011;54596;43.216;27.904;2023-12-28T10:45:41;14.88;;;7.35;;
67798;SDS011;54596;43.216;27.904;2023-12-28T10:48:11;18.33;;;10.57;;
67798;SDS011;54596;43.216;27.904;2023-12-28T10:50:38;15.00;;;7.95;;
67798;SDS011;54596;43.216;27.904;2023-12-28T10:53:11;15.27;;;8.20;;
67798;SDS011;54596;43.216;27.904;2023-12-28T11:01:07;17.33;;;9.02;;
67798;SDS011;54596;43.216;27.904;2023-12-28T11:03:37;14.90;;;8.63;;
67798;SDS011;54596;43.216;27.904;2023-12-28T11:06:06;13.25;;;7.72;;
67798;SDS011;54596;43.216;27.904;2023-12-28T11:08:33;14.60;;;7.75;;
67798;SDS011;54596;43.216;27.904;2023-12-28T11:11:00;16.02;;;8.45;;
67798;SDS011;54596;43.216;27.904;2023-12-28T11:13:29;15.20;;;8.23;;
67798;SDS011;54596;43.216;27.904;2023-12-28T11:15:57;15.32;;;8.07;;
67798;SDS011;54596;43.216;27.904;2023-12-28T11:18:25;14.38;;;8.23;;
67798;SDS011;54596;43.216;27.904;2023-12-28T11:20:50;16.35;;;8.57;;
67798;SDS011;54596;43.216;27.904;2023-12-28T11:23:16;16.77;;;9.00;;
67798;SDS011;54596;43.216;27.904;2023-12-28T11:25:42;16.38;;;8.70;;
67798;SDS011;54596;43.216;27.904;2023-12-28T11:28:08;14.15;;;7.80;;
67798;SDS011;54596;43.216;27.904;2023-12-28T11:30:35;13.93;;;8.48;;
67798;SDS011;54596;43.216;27.904;2023-12-28T11:33:01;14.15;;;8.05;;
67798;SDS011;54596;43.216;27.904;2023-12-28T11:35:38;16.25;;;8.25;;
67798;SDS011;54596;43.216;27.904;2023-12-28T11:38:08;15.73;;;7.28;;
67798;SDS011;54596;43.216;27.904;2023-12-28T11:40:42;14.27;;;7.90;;
67798;SDS011;54596;43.216;27.904;2023-12-28T11:43:18;16.65;;;8.13;;
67798;SDS011;54596;43.216;27.904;2023-12-28T11:45:49;16.38;;;7.70;;
67798;SDS011;54596;43.216;27.904;2023-12-28T11:48:23;14.63;;;8.10;;
67798;SDS011;54596;43.216;27.904;2023-12-28T11:51:01;17.85;;;8.05;;
67798;SDS011;54596;43.216;27.904;2023-12-28T11:53:28;15.73;;;8.02;;
67798;SDS011;54596;43.216;27.904;2023-12-28T11:56:02;21.40;;;10.32;;
67798;SDS011;54596;43.216;27.904;2023-12-28T11:58:30;17.13;;;9.02;;
67798;SDS011;54596;43.216;27.904;2023-12-28T12:00:55;16.58;;;7.85;;
67798;SDS011;54596;43.216;27.904;2023-12-28T12:03:24;14.10;;;7.55;;
67798;SDS011;54596;43.216;27.904;2023-12-28T12:05:50;13.50;;;7.93;;
67798;SDS011;54596;43.216;27.904;2023-12-28T12:08:15;15.10;;;7.40;;
67798;SDS011;54596;43.216;27.904;2023-12-28T12:10:41;12.63;;;6.93;;
67798;SDS011;54596;43.216;27.904;2023-12-28T12:13:07;13.50;;;7.00;;
67798;SDS011;54596;43.216;27.904;2023-12-28T12:15:33;12.77;;;7.30;;
67798;SDS011;54596;43.216;27.904;2023-12-28T12:18:00;13.93;;;7.18;;
67798;SDS011;54596;43.216;27.904;2023-12-28T12:20:26;14.75;;;7.60;;
67798;SDS011;54596;43.216;27.904;2023-12-28T12:22:56;12.00;;;6.88;;
67798;SDS011;54596;43.216;27.904;2023-12-28T12:25:23;21.30;;;7.75;;
67798;SDS011;54596;43.216;27.904;2023-12-28T12:27:48;13.32;;;6.45;;
67798;SDS011;54596;43.216;27.904;2023-12-28T12:30:14;14.50;;;6.82;;
67798;SDS011;54596;43.216;27.904;2023-12-28T12:32:40;14.68;;;6.88;;
67798;SDS011;54596;43.216;27.904;2023-12-28T12:35:08;12.45;;;6.47;;
67798;SDS011;54596;43.216;27.904;2023-12-28T12:37:34;15.13;;;6.70;;
67798;SDS011;54596;43.216;27.904;2023-12-28T12:40:00;13.32;;;6.72;;
67798;SDS011;54596;43.216;27.904;2023-12-28T12:42:28;12.52;;;6.80;;
67798;SDS011;54596;43.216;27.904;2023-12-28T12:47:38;12.65;;;6.50;;
67798;SDS011;54596;43.216;27.904;2023-12-28T12:50:04;14.18;;;6.65;;
67798;SDS011;54596;43.216;27.904;2023-12-28T12:52:30;14.65;;;6.93;;
67798;SDS011;54596;43.216;27.904;2023-12-28T12:54:56;13.63;;;6.53;;
67798;SDS011;54596;43.216;27.904;2023-12-28T12:57:23;14.48;;;6.68;;
67798;SDS011;54596;43.216;27.904;2023-12-28T12:59:52;13.82;;;6.93;;
67798;SDS011;54596;43.216;27.904;2023-12-28T13:02:18;14.50;;;6.75;;
67798;SDS011;54596;43.216;27.904;2023-12-28T13:04:43;13.65;;;7.25;;
67798;SDS011;54596;43.216;27.904;2023-12-28T13:07:09;16.10;;;6.68;;
67798;SDS011;54596;43.216;27.904;2023-12-28T13:09:34;13.43;;;6.60;;
67798;SDS011;54596;43.216;27.904;2023-12-28T13:12:00;14.82;;;6.75;;
67798;SDS011;54596;43.216;27.904;2023-12-28T13:14:28;14.85;;;7.38;;
67798;SDS011;54596;43.216;27.904;2023-12-28T13:16:55;13.02;;;6.70;;
67798;SDS011;54596;43.216;27.904;2023-12-28T13:19:21;13.73;;;6.80;;
67798;SDS011;54596;43.216;27.904;2023-12-28T13:21:46;16.00;;;7.07;;
67798;SDS011;54596;43.216;27.904;2023-12-28T13:24:12;12.43;;;6.80;;
67798;SDS011;54596;43.216;27.904;2023-12-28T13:26:37;14.07;;;6.85;;
67798;SDS011;54596;43.216;27.904;2023-12-28T13:29:03;17.63;;;7.57;;
67798;SDS011;54596;43.216;27.904;2023-12-28T13:31:29;14.43;;;6.80;;
67798;SDS011;54596;43.216;27.904;2023-12-28T13:33:54;14.80;;;6.97;;
67798;SDS011;54596;43.216;27.904;2023-12-28T13:36:20;14.90;;;7.28;;
67798;SDS011;54596;43.216;27.904;2023-12-28T13:38:46;15.88;;;6.93;;
67798;SDS011;54596;43.216;27.904;2023-12-28T13:41:13;13.50;;;7.03;;
67798;SDS011;54596;43.216;27.904;2023-12-28T13:43:38;13.43;;;6.80;;
67798;SDS011;54596;43.216;27.904;2023-12-28T13:46:04;13.60;;;6.55;;
67798;SDS011;54596;43.216;27.904;2023-12-28T13:48:30;15.82;;;8.88;;
67798;SDS011;54596;43.216;27.904;2023-12-28T13:50:56;19.95;;;11.48;;
67798;SDS011;54596;43.216;27.904;2023-12-28T13:53:21;14.20;;;7.13;;
67798;SDS011;54596;43.216;27.904;2023-12-28T13:55:47;14.32;;;6.60;;
67798;SDS011;54596;43.216;27.904;2023-12-28T13:58:13;15.68;;;6.80;;
67798;SDS011;54596;43.216;27.904;2023-12-28T14:00:39;17.50;;;7.70;;
67798;SDS011;54596;43.216;27.904;2023-12-28T14:03:05;25.65;;;14.98;;
67798;SDS011;54596;43.216;27.904;2023-12-28T14:05:30;22.35;;;12.57;;
67798;SDS011;54596;43.216;27.904;2023-12-28T14:07:56;17.25;;;7.82;;
67798;SDS011;54596;43.216;27.904;2023-12-28T14:10:22;18.05;;;7.57;;
67798;SDS011;54596;43.216;27.904;2023-12-28T14:12:48;13.68;;;7.18;;
67798;SDS011;54596;43.216;27.904;2023-12-28T14:15:13;13.68;;;6.57;;
67798;SDS011;54596;43.216;27.904;2023-12-28T14:17:41;15.75;;;6.30;;
67798;SDS011;54596;43.216;27.904;2023-12-28T14:20:07;17.17;;;6.30;;
67798;SDS011;54596;43.216;27.904;2023-12-28T14:22:36;13.95;;;6.30;;